sensor_id;sensor_type;location;lat;lon;timestamp;P1;durP1;ratioP1;P2;durP2;ratioP2
32365;SDS011;18837;46.832;16.838;2023-04-23T00:01:04;6.07;;;5.30;;
32365;SDS011;18837;46.832;16.838;2023-04-23T00:03:32;5.57;;;4.90;;
32365;SDS011;18837;46.832;16.838;2023-04-23T00:06:06;5.87;;;4.60;;
32365;SDS011;18837;46.832;16.838;2023-04-23T00:08:34;5.43;;;4.77;;
32365;SDS011;18837;46.832;16.838;2023-04-23T00:11:01;5.43;;;4.83;;
32365;SDS011;18837;46.832;16.838;2023-04-23T00:13:27;5.83;;;5.23;;
32365;SDS011;18837;46.832;16.838;2023-04-23T00:15:53;5.67;;;5.07;;
32365;SDS011;18837;46.832;16.838;2023-04-23T00:18:19;7.37;;;5.07;;
32365;SDS011;18837;46.832;16.838;2023-04-23T00:20:45;7.13;;;4.97;;
32365;SDS011;18837;46.832;16.838;2023-04-23T00:23:11;5.73;;;4.70;;
32365;SDS011;18837;46.832;16.838;2023-04-23T00:25:37;5.90;;;5.30;;
32365;SDS011;18837;46.832;16.838;2023-04-23T00:28:02;6.37;;;4.67;;
32365;SDS011;18837;46.832;16.838;2023-04-23T00:30:28;5.63;;;4.87;;
32365;SDS011;18837;46.832;16.838;2023-04-23T00:32:54;5.90;;;5.33;;
32365;SDS011;18837;46.832;16.838;2023-04-23T00:35:20;5.60;;;4.77;;
32365;SDS011;18837;46.832;16.838;2023-04-23T00:37:45;6.03;;;4.33;;
32365;SDS011;18837;46.832;16.838;2023-04-23T00:40:11;5.23;;;4.70;;
32365;SDS011;18837;46.832;16.838;2023-04-23T00:42:37;5.37;;;4.67;;
32365;SDS011;18837;46.832;16.838;2023-04-23T00:45:07;4.77;;;4.33;;
32365;SDS011;18837;46.832;16.838;2023-04-23T00:47:33;5.00;;;4.50;;
32365;SDS011;18837;46.832;16.838;2023-04-23T00:49:59;5.83;;;4.40;;
32365;SDS011;18837;46.832;16.838;2023-04-23T00:52:25;7.53;;;4.67;;
32365;SDS011;18837;46.832;16.838;2023-04-23T00:54:53;5.03;;;4.53;;
32365;SDS011;18837;46.832;16.838;2023-04-23T00:57:19;4.83;;;4.43;;
32365;SDS011;18837;46.832;16.838;2023-04-23T00:59:46;5.00;;;4.50;;
32365;SDS011;18837;46.832;16.838;2023-04-23T01:02:13;5.57;;;4.70;;
32365;SDS011;18837;46.832;16.838;2023-04-23T01:04:40;4.70;;;4.27;;
32365;SDS011;18837;46.832;16.838;2023-04-23T01:07:09;5.30;;;4.70;;
32365;SDS011;18837;46.832;16.838;2023-04-23T01:09:36;5.27;;;4.77;;
32365;SDS011;18837;46.832;16.838;2023-04-23T01:12:04;4.70;;;4.30;;
32365;SDS011;18837;46.832;16.838;2023-04-23T01:14:31;5.27;;;4.77;;
32365;SDS011;18837;46.832;16.838;2023-04-23T01:16:57;4.63;;;4.13;;
32365;SDS011;18837;46.832;16.838;2023-04-23T01:19:23;5.37;;;4.80;;
32365;SDS011;18837;46.832;16.838;2023-04-23T01:21:49;5.20;;;4.70;;
32365;SDS011;18837;46.832;16.838;2023-04-23T01:24:15;5.13;;;4.63;;
32365;SDS011;18837;46.832;16.838;2023-04-23T01:26:41;5.20;;;4.70;;
32365;SDS011;18837;46.832;16.838;2023-04-23T01:29:07;5.10;;;4.20;;
32365;SDS011;18837;46.832;16.838;2023-04-23T01:31:34;5.43;;;4.70;;
32365;SDS011;18837;46.832;16.838;2023-04-23T01:34:00;4.90;;;4.40;;
32365;SDS011;18837;46.832;16.838;2023-04-23T01:36:27;6.90;;;5.23;;
32365;SDS011;18837;46.832;16.838;2023-04-23T01:38:53;5.80;;;4.90;;
32365;SDS011;18837;46.832;16.838;2023-04-23T01:41:19;5.90;;;4.47;;
32365;SDS011;18837;46.832;16.838;2023-04-23T01:43:48;5.73;;;4.40;;
32365;SDS011;18837;46.832;16.838;2023-04-23T01:46:14;5.17;;;4.67;;
32365;SDS011;18837;46.832;16.838;2023-04-23T01:48:40;5.60;;;4.30;;
32365;SDS011;18837;46.832;16.838;2023-04-23T01:51:06;5.03;;;4.53;;
32365;SDS011;18837;46.832;16.838;2023-04-23T01:53:33;4.53;;;4.13;;
32365;SDS011;18837;46.832;16.838;2023-04-23T01:55:58;5.07;;;4.57;;
32365;SDS011;18837;46.832;16.838;2023-04-23T01:58:25;5.27;;;4.57;;
32365;SDS011;18837;46.832;16.838;2023-04-23T02:00:51;5.27;;;4.33;;
32365;SDS011;18837;46.832;16.838;2023-04-23T02:03:17;5.40;;;3.83;;
32365;SDS011;18837;46.832;16.838;2023-04-23T02:05:43;6.33;;;4.60;;
32365;SDS011;18837;46.832;16.838;2023-04-23T02:08:09;5.50;;;5.00;;
32365;SDS011;18837;46.832;16.838;2023-04-23T02:10:35;4.57;;;4.07;;
32365;SDS011;18837;46.832;16.838;2023-04-23T02:13:01;4.97;;;4.33;;
32365;SDS011;18837;46.832;16.838;2023-04-23T02:15:28;5.90;;;4.90;;
32365;SDS011;18837;46.832;16.838;2023-04-23T02:17:54;4.70;;;4.20;;
32365;SDS011;18837;46.832;16.838;2023-04-23T02:20:20;5.20;;;4.37;;
32365;SDS011;18837;46.832;16.838;2023-04-23T02:22:46;5.23;;;4.60;;
32365;SDS011;18837;46.832;16.838;2023-04-23T02:25:13;4.43;;;4.03;;
32365;SDS011;18837;46.832;16.838;2023-04-23T02:27:40;5.03;;;4.57;;
32365;SDS011;18837;46.832;16.838;2023-04-23T02:30:07;5.87;;;4.70;;
32365;SDS011;18837;46.832;16.838;2023-04-23T02:32:34;5.27;;;4.60;;
32365;SDS011;18837;46.832;16.838;2023-04-23T02:35:01;5.40;;;4.50;;
32365;SDS011;18837;46.832;16.838;2023-04-23T02:37:28;6.50;;;4.90;;
32365;SDS011;18837;46.832;16.838;2023-04-23T02:39:53;4.23;;;3.83;;
32365;SDS011;18837;46.832;16.838;2023-04-23T02:42:19;5.90;;;5.17;;
32365;SDS011;18837;46.832;16.838;2023-04-23T02:44:45;5.50;;;4.77;;
32365;SDS011;18837;46.832;16.838;2023-04-23T02:47:11;4.97;;;4.47;;
32365;SDS011;18837;46.832;16.838;2023-04-23T02:49:36;5.97;;;4.87;;
32365;SDS011;18837;46.832;16.838;2023-04-23T02:52:02;5.43;;;4.70;;
32365;SDS011;18837;46.832;16.838;2023-04-23T02:54:28;5.63;;;4.40;;
32365;SDS011;18837;46.832;16.838;2023-04-23T02:56:56;5.00;;;4.47;;
32365;SDS011;18837;46.832;16.838;2023-04-23T02:59:22;6.40;;;5.00;;
32365;SDS011;18837;46.832;16.838;2023-04-23T03:01:49;5.43;;;4.50;;
32365;SDS011;18837;46.832;16.838;2023-04-23T03:04:15;5.37;;;4.70;;
32365;SDS011;18837;46.832;16.838;2023-04-23T03:06:42;7.23;;;4.80;;
32365;SDS011;18837;46.832;16.838;2023-04-23T03:09:08;6.40;;;4.73;;
32365;SDS011;18837;46.832;16.838;2023-04-23T03:11:33;5.20;;;4.53;;
32365;SDS011;18837;46.832;16.838;2023-04-23T03:13:59;5.40;;;4.87;;
32365;SDS011;18837;46.832;16.838;2023-04-23T03:16:26;5.30;;;4.80;;
32365;SDS011;18837;46.832;16.838;2023-04-23T03:18:52;5.50;;;4.93;;
32365;SDS011;18837;46.832;16.838;2023-04-23T03:21:18;5.00;;;4.50;;
32365;SDS011;18837;46.832;16.838;2023-04-23T03:23:44;5.00;;;4.40;;
32365;SDS011;18837;46.832;16.838;2023-04-23T03:26:10;6.53;;;4.83;;
32365;SDS011;18837;46.832;16.838;2023-04-23T03:28:35;5.67;;;4.50;;
32365;SDS011;18837;46.832;16.838;2023-04-23T03:31:01;6.50;;;5.20;;
32365;SDS011;18837;46.832;16.838;2023-04-23T03:33:27;5.30;;;4.80;;
32365;SDS011;18837;46.832;16.838;2023-04-23T03:35:52;6.10;;;5.03;;
32365;SDS011;18837;46.832;16.838;2023-04-23T03:38:18;5.27;;;4.50;;
32365;SDS011;18837;46.832;16.838;2023-04-23T03:40:45;6.43;;;4.90;;
32365;SDS011;18837;46.832;16.838;2023-04-23T03:43:10;5.33;;;4.83;;
32365;SDS011;18837;46.832;16.838;2023-04-23T03:45:36;4.80;;;4.30;;
32365;SDS011;18837;46.832;16.838;2023-04-23T03:48:02;5.70;;;4.70;;
32365;SDS011;18837;46.832;16.838;2023-04-23T03:50:28;5.00;;;4.33;;
32365;SDS011;18837;46.832;16.838;2023-04-23T03:52:54;5.73;;;4.90;;
32365;SDS011;18837;46.832;16.838;2023-04-23T03:55:20;5.40;;;4.87;;
32365;SDS011;18837;46.832;16.838;2023-04-23T03:57:45;5.13;;;4.60;;
32365;SDS011;18837;46.832;16.838;2023-04-23T04:00:11;5.10;;;4.60;;
32365;SDS011;18837;46.832;16.838;2023-04-23T04:02:37;6.43;;;5.23;;
32365;SDS011;18837;46.832;16.838;2023-04-23T04:05:04;7.23;;;5.00;;
32365;SDS011;18837;46.832;16.838;2023-04-23T04:07:30;5.27;;;4.70;;
32365;SDS011;18837;46.832;16.838;2023-04-23T04:09:57;4.93;;;4.43;;
32365;SDS011;18837;46.832;16.838;2023-04-23T04:12:23;7.07;;;5.40;;
32365;SDS011;18837;46.832;16.838;2023-04-23T04:14:50;6.10;;;4.83;;
32365;SDS011;18837;46.832;16.838;2023-04-23T04:17:16;5.10;;;4.70;;
32365;SDS011;18837;46.832;16.838;2023-04-23T04:19:42;5.23;;;4.47;;
32365;SDS011;18837;46.832;16.838;2023-04-23T04:22:08;5.97;;;4.90;;
32365;SDS011;18837;46.832;16.838;2023-04-23T04:24:34;5.20;;;4.70;;
32365;SDS011;18837;46.832;16.838;2023-04-23T04:27:00;7.10;;;4.50;;
32365;SDS011;18837;46.832;16.838;2023-04-23T04:29:26;5.37;;;4.87;;
32365;SDS011;18837;46.832;16.838;2023-04-23T04:31:53;5.60;;;4.77;;
32365;SDS011;18837;46.832;16.838;2023-04-23T04:34:19;5.53;;;5.03;;
32365;SDS011;18837;46.832;16.838;2023-04-23T04:36:45;5.80;;;4.53;;
32365;SDS011;18837;46.832;16.838;2023-04-23T04:39:11;6.03;;;5.27;;
32365;SDS011;18837;46.832;16.838;2023-04-23T04:41:41;5.13;;;4.67;;
32365;SDS011;18837;46.832;16.838;2023-04-23T04:44:07;6.67;;;4.70;;
32365;SDS011;18837;46.832;16.838;2023-04-23T04:46:33;5.07;;;4.57;;
32365;SDS011;18837;46.832;16.838;2023-04-23T04:49:07;5.90;;;4.73;;
32365;SDS011;18837;46.832;16.838;2023-04-23T04:51:34;6.50;;;5.00;;
32365;SDS011;18837;46.832;16.838;2023-04-23T04:54:00;4.93;;;4.43;;
32365;SDS011;18837;46.832;16.838;2023-04-23T04:56:26;5.47;;;4.73;;
32365;SDS011;18837;46.832;16.838;2023-04-23T04:58:52;5.27;;;4.07;;
32365;SDS011;18837;46.832;16.838;2023-04-23T05:01:19;5.77;;;5.23;;
32365;SDS011;18837;46.832;16.838;2023-04-23T05:03:47;5.87;;;4.57;;
32365;SDS011;18837;46.832;16.838;2023-04-23T05:06:13;6.20;;;4.83;;
32365;SDS011;18837;46.832;16.838;2023-04-23T05:08:38;6.07;;;5.17;;
32365;SDS011;18837;46.832;16.838;2023-04-23T05:11:05;5.33;;;4.80;;
32365;SDS011;18837;46.832;16.838;2023-04-23T05:13:31;6.13;;;5.17;;
32365;SDS011;18837;46.832;16.838;2023-04-23T05:15:57;4.93;;;4.43;;
32365;SDS011;18837;46.832;16.838;2023-04-23T05:18:24;6.33;;;5.33;;
32365;SDS011;18837;46.832;16.838;2023-04-23T05:20:49;5.30;;;4.60;;
32365;SDS011;18837;46.832;16.838;2023-04-23T05:23:15;5.13;;;4.23;;
32365;SDS011;18837;46.832;16.838;2023-04-23T05:25:44;5.27;;;4.30;;
32365;SDS011;18837;46.832;16.838;2023-04-23T05:28:10;5.57;;;4.77;;
32365;SDS011;18837;46.832;16.838;2023-04-23T05:30:36;4.83;;;4.33;;
32365;SDS011;18837;46.832;16.838;2023-04-23T05:33:02;5.13;;;4.63;;
32365;SDS011;18837;46.832;16.838;2023-04-23T05:35:28;4.20;;;3.80;;
32365;SDS011;18837;46.832;16.838;2023-04-23T05:37:55;5.20;;;4.67;;
32365;SDS011;18837;46.832;16.838;2023-04-23T05:40:22;5.20;;;4.70;;
32365;SDS011;18837;46.832;16.838;2023-04-23T05:42:48;6.47;;;5.00;;
32365;SDS011;18837;46.832;16.838;2023-04-23T05:45:14;5.17;;;4.67;;
32365;SDS011;18837;46.832;16.838;2023-04-23T05:47:39;5.53;;;4.40;;
32365;SDS011;18837;46.832;16.838;2023-04-23T05:50:05;5.63;;;4.00;;
32365;SDS011;18837;46.832;16.838;2023-04-23T05:52:31;4.77;;;4.27;;
32365;SDS011;18837;46.832;16.838;2023-04-23T05:54:59;5.00;;;4.50;;
32365;SDS011;18837;46.832;16.838;2023-04-23T05:57:25;6.07;;;4.50;;
32365;SDS011;18837;46.832;16.838;2023-04-23T05:59:51;6.23;;;4.40;;
32365;SDS011;18837;46.832;16.838;2023-04-23T06:02:16;4.63;;;4.23;;
32365;SDS011;18837;46.832;16.838;2023-04-23T06:04:42;4.70;;;4.30;;
32365;SDS011;18837;46.832;16.838;2023-04-23T06:07:08;6.80;;;4.87;;
32365;SDS011;18837;46.832;16.838;2023-04-23T06:09:34;4.73;;;4.33;;
32365;SDS011;18837;46.832;16.838;2023-04-23T06:11:59;4.87;;;4.37;;
32365;SDS011;18837;46.832;16.838;2023-04-23T06:14:27;5.97;;;4.70;;
32365;SDS011;18837;46.832;16.838;2023-04-23T06:16:53;5.33;;;4.83;;
32365;SDS011;18837;46.832;16.838;2023-04-23T06:19:19;6.37;;;4.50;;
32365;SDS011;18837;46.832;16.838;2023-04-23T06:21:45;5.00;;;4.47;;
32365;SDS011;18837;46.832;16.838;2023-04-23T06:24:11;6.23;;;4.60;;
32365;SDS011;18837;46.832;16.838;2023-04-23T06:26:36;5.17;;;4.63;;
32365;SDS011;18837;46.832;16.838;2023-04-23T06:29:02;4.90;;;4.40;;
32365;SDS011;18837;46.832;16.838;2023-04-23T06:31:28;6.40;;;4.67;;
32365;SDS011;18837;46.832;16.838;2023-04-23T06:33:54;5.60;;;4.87;;
32365;SDS011;18837;46.832;16.838;2023-04-23T06:36:19;5.87;;;4.57;;
32365;SDS011;18837;46.832;16.838;2023-04-23T06:38:45;4.83;;;3.97;;
32365;SDS011;18837;46.832;16.838;2023-04-23T06:41:11;5.77;;;4.80;;
32365;SDS011;18837;46.832;16.838;2023-04-23T06:43:37;5.50;;;4.63;;
32365;SDS011;18837;46.832;16.838;2023-04-23T06:46:03;4.67;;;4.27;;
32365;SDS011;18837;46.832;16.838;2023-04-23T06:48:29;5.33;;;4.60;;
32365;SDS011;18837;46.832;16.838;2023-04-23T06:50:56;4.50;;;4.10;;
32365;SDS011;18837;46.832;16.838;2023-04-23T06:53:22;6.47;;;4.27;;
32365;SDS011;18837;46.832;16.838;2023-04-23T06:55:48;5.07;;;4.50;;
32365;SDS011;18837;46.832;16.838;2023-04-23T06:58:15;6.20;;;4.70;;
32365;SDS011;18837;46.832;16.838;2023-04-23T07:00:42;5.57;;;4.43;;
32365;SDS011;18837;46.832;16.838;2023-04-23T07:03:08;5.10;;;4.33;;
32365;SDS011;18837;46.832;16.838;2023-04-23T07:05:34;5.17;;;4.23;;
32365;SDS011;18837;46.832;16.838;2023-04-23T07:08:00;4.70;;;4.17;;
32365;SDS011;18837;46.832;16.838;2023-04-23T07:10:25;6.77;;;4.30;;
32365;SDS011;18837;46.832;16.838;2023-04-23T07:12:51;5.90;;;4.47;;
32365;SDS011;18837;46.832;16.838;2023-04-23T07:15:17;5.70;;;4.30;;
32365;SDS011;18837;46.832;16.838;2023-04-23T07:17:43;5.03;;;4.30;;
32365;SDS011;18837;46.832;16.838;2023-04-23T07:20:08;4.83;;;4.10;;
32365;SDS011;18837;46.832;16.838;2023-04-23T07:22:34;4.90;;;3.97;;
32365;SDS011;18837;46.832;16.838;2023-04-23T07:25:00;4.83;;;4.33;;
32365;SDS011;18837;46.832;16.838;2023-04-23T07:27:28;4.57;;;4.07;;
32365;SDS011;18837;46.832;16.838;2023-04-23T07:29:53;4.50;;;4.00;;
32365;SDS011;18837;46.832;16.838;2023-04-23T07:32:19;4.20;;;3.80;;
32365;SDS011;18837;46.832;16.838;2023-04-23T07:34:47;4.13;;;3.43;;
32365;SDS011;18837;46.832;16.838;2023-04-23T07:37:13;4.37;;;3.03;;
32365;SDS011;18837;46.832;16.838;2023-04-23T07:39:39;3.90;;;3.40;;
32365;SDS011;18837;46.832;16.838;2023-04-23T07:42:05;4.57;;;3.87;;
32365;SDS011;18837;46.832;16.838;2023-04-23T07:44:30;4.03;;;3.40;;
32365;SDS011;18837;46.832;16.838;2023-04-23T07:46:56;4.20;;;3.53;;
32365;SDS011;18837;46.832;16.838;2023-04-23T07:49:22;5.67;;;4.20;;
32365;SDS011;18837;46.832;16.838;2023-04-23T07:51:48;5.30;;;3.43;;
32365;SDS011;18837;46.832;16.838;2023-04-23T07:54:13;4.47;;;3.87;;
32365;SDS011;18837;46.832;16.838;2023-04-23T07:56:39;6.83;;;3.60;;
32365;SDS011;18837;46.832;16.838;2023-04-23T07:59:05;4.60;;;3.73;;
32365;SDS011;18837;46.832;16.838;2023-04-23T08:01:31;4.70;;;3.40;;
32365;SDS011;18837;46.832;16.838;2023-04-23T08:03:57;4.77;;;3.97;;
32365;SDS011;18837;46.832;16.838;2023-04-23T08:06:24;3.90;;;3.60;;
32365;SDS011;18837;46.832;16.838;2023-04-23T08:08:51;3.77;;;3.40;;
32365;SDS011;18837;46.832;16.838;2023-04-23T08:11:20;4.07;;;3.67;;
32365;SDS011;18837;46.832;16.838;2023-04-23T08:13:45;4.17;;;3.77;;
32365;SDS011;18837;46.832;16.838;2023-04-23T08:16:11;4.07;;;3.67;;
32365;SDS011;18837;46.832;16.838;2023-04-23T08:18:37;4.37;;;3.67;;
32365;SDS011;18837;46.832;16.838;2023-04-23T08:21:03;4.60;;;3.73;;
32365;SDS011;18837;46.832;16.838;2023-04-23T08:23:29;3.83;;;3.40;;
32365;SDS011;18837;46.832;16.838;2023-04-23T08:25:57;4.23;;;3.73;;
32365;SDS011;18837;46.832;16.838;2023-04-23T08:28:23;4.43;;;3.83;;
32365;SDS011;18837;46.832;16.838;2023-04-23T08:30:48;3.83;;;3.37;;
32365;SDS011;18837;46.832;16.838;2023-04-23T08:33:14;4.73;;;3.90;;
32365;SDS011;18837;46.832;16.838;2023-04-23T08:35:40;4.03;;;3.40;;
32365;SDS011;18837;46.832;16.838;2023-04-23T08:38:06;4.87;;;3.70;;
32365;SDS011;18837;46.832;16.838;2023-04-23T08:40:32;5.07;;;3.93;;
32365;SDS011;18837;46.832;16.838;2023-04-23T08:43:02;4.23;;;3.80;;
32365;SDS011;18837;46.832;16.838;2023-04-23T08:45:37;3.77;;;3.33;;
32365;SDS011;18837;46.832;16.838;2023-04-23T08:48:05;5.60;;;3.73;;
32365;SDS011;18837;46.832;16.838;2023-04-23T08:50:33;3.50;;;3.20;;
32365;SDS011;18837;46.832;16.838;2023-04-23T08:53:02;4.67;;;3.67;;
32365;SDS011;18837;46.832;16.838;2023-04-23T08:55:31;4.40;;;3.93;;
32365;SDS011;18837;46.832;16.838;2023-04-23T08:57:59;3.90;;;3.50;;
32365;SDS011;18837;46.832;16.838;2023-04-23T09:00:28;4.00;;;3.43;;
32365;SDS011;18837;46.832;16.838;2023-04-23T09:02:54;4.33;;;3.63;;
32365;SDS011;18837;46.832;16.838;2023-04-23T09:05:20;3.77;;;3.30;;
32365;SDS011;18837;46.832;16.838;2023-04-23T09:07:46;4.33;;;3.50;;
32365;SDS011;18837;46.832;16.838;2023-04-23T09:10:12;5.17;;;3.47;;
32365;SDS011;18837;46.832;16.838;2023-04-23T09:12:39;3.93;;;3.53;;
32365;SDS011;18837;46.832;16.838;2023-04-23T09:15:06;5.60;;;3.57;;
32365;SDS011;18837;46.832;16.838;2023-04-23T09:17:40;4.73;;;3.77;;
32365;SDS011;18837;46.832;16.838;2023-04-23T09:20:09;6.73;;;4.00;;
32365;SDS011;18837;46.832;16.838;2023-04-23T09:22:39;9.40;;;3.60;;
32365;SDS011;18837;46.832;16.838;2023-04-23T09:25:06;5.33;;;3.67;;
32365;SDS011;18837;46.832;16.838;2023-04-23T09:27:33;4.27;;;3.63;;
32365;SDS011;18837;46.832;16.838;2023-04-23T09:30:01;5.23;;;3.67;;
32365;SDS011;18837;46.832;16.838;2023-04-23T09:32:31;4.60;;;3.37;;
32365;SDS011;18837;46.832;16.838;2023-04-23T09:34:58;5.37;;;3.70;;
32365;SDS011;18837;46.832;16.838;2023-04-23T09:37:27;5.67;;;3.07;;
32365;SDS011;18837;46.832;16.838;2023-04-23T09:39:53;4.23;;;3.83;;
32365;SDS011;18837;46.832;16.838;2023-04-23T09:42:22;3.40;;;3.03;;
32365;SDS011;18837;46.832;16.838;2023-04-23T09:44:55;3.43;;;2.90;;
32365;SDS011;18837;46.832;16.838;2023-04-23T09:47:22;4.43;;;3.20;;
32365;SDS011;18837;46.832;16.838;2023-04-23T09:49:48;3.97;;;3.17;;
32365;SDS011;18837;46.832;16.838;2023-04-23T09:52:15;3.93;;;3.27;;
32365;SDS011;18837;46.832;16.838;2023-04-23T09:54:42;3.90;;;3.10;;
32365;SDS011;18837;46.832;16.838;2023-04-23T09:57:10;5.07;;;3.40;;
32365;SDS011;18837;46.832;16.838;2023-04-23T09:59:36;4.33;;;3.20;;
32365;SDS011;18837;46.832;16.838;2023-04-23T10:02:03;3.80;;;3.27;;
32365;SDS011;18837;46.832;16.838;2023-04-23T10:04:31;4.07;;;3.30;;
32365;SDS011;18837;46.832;16.838;2023-04-23T10:06:59;3.50;;;3.20;;
32365;SDS011;18837;46.832;16.838;2023-04-23T10:09:29;4.63;;;3.67;;
32365;SDS011;18837;46.832;16.838;2023-04-23T10:11:56;4.60;;;3.17;;
32365;SDS011;18837;46.832;16.838;2023-04-23T10:14:24;4.00;;;3.00;;
32365;SDS011;18837;46.832;16.838;2023-04-23T10:16:52;3.73;;;2.67;;
32365;SDS011;18837;46.832;16.838;2023-04-23T10:19:27;4.07;;;3.10;;
32365;SDS011;18837;46.832;16.838;2023-04-23T10:24:22;4.10;;;3.03;;
32365;SDS011;18837;46.832;16.838;2023-04-23T10:26:51;3.97;;;3.33;;
32365;SDS011;18837;46.832;16.838;2023-04-23T10:29:20;3.57;;;3.10;;
32365;SDS011;18837;46.832;16.838;2023-04-23T10:31:53;5.23;;;3.37;;
32365;SDS011;18837;46.832;16.838;2023-04-23T10:34:21;3.03;;;2.73;;
32365;SDS011;18837;46.832;16.838;2023-04-23T10:36:50;4.03;;;3.10;;
32365;SDS011;18837;46.832;16.838;2023-04-23T10:39:17;3.50;;;3.17;;
32365;SDS011;18837;46.832;16.838;2023-04-23T10:41:48;4.47;;;3.20;;
32365;SDS011;18837;46.832;16.838;2023-04-23T10:44:14;5.17;;;3.20;;
32365;SDS011;18837;46.832;16.838;2023-04-23T10:46:54;3.63;;;3.17;;
32365;SDS011;18837;46.832;16.838;2023-04-23T10:49:22;3.70;;;2.63;;
32365;SDS011;18837;46.832;16.838;2023-04-23T10:51:56;3.87;;;2.57;;
32365;SDS011;18837;46.832;16.838;2023-04-23T10:54:32;3.53;;;3.00;;
32365;SDS011;18837;46.832;16.838;2023-04-23T10:56:59;4.33;;;3.43;;
32365;SDS011;18837;46.832;16.838;2023-04-23T10:59:30;3.50;;;2.97;;
32365;SDS011;18837;46.832;16.838;2023-04-23T11:01:57;3.77;;;2.97;;
32365;SDS011;18837;46.832;16.838;2023-04-23T11:04:34;4.03;;;2.63;;
32365;SDS011;18837;46.832;16.838;2023-04-23T11:07:05;3.30;;;3.00;;
32365;SDS011;18837;46.832;16.838;2023-04-23T11:12:01;3.10;;;2.80;;
32365;SDS011;18837;46.832;16.838;2023-04-23T11:17:11;7.80;;;3.17;;
32365;SDS011;18837;46.832;16.838;2023-04-23T11:19:39;3.87;;;2.90;;
32365;SDS011;18837;46.832;16.838;2023-04-23T11:22:11;3.63;;;3.10;;
32365;SDS011;18837;46.832;16.838;2023-04-23T11:24:39;4.97;;;2.93;;
32365;SDS011;18837;46.832;16.838;2023-04-23T11:27:07;5.37;;;2.70;;
32365;SDS011;18837;46.832;16.838;2023-04-23T11:29:37;3.87;;;3.00;;
32365;SDS011;18837;46.832;16.838;2023-04-23T11:32:05;5.27;;;3.10;;
32365;SDS011;18837;46.832;16.838;2023-04-23T11:34:38;3.50;;;2.60;;
32365;SDS011;18837;46.832;16.838;2023-04-23T11:37:07;3.57;;;3.20;;
32365;SDS011;18837;46.832;16.838;2023-04-23T11:39:35;3.13;;;2.63;;
32365;SDS011;18837;46.832;16.838;2023-04-23T11:42:00;5.60;;;2.90;;
32365;SDS011;18837;46.832;16.838;2023-04-23T11:44:27;4.87;;;2.90;;
32365;SDS011;18837;46.832;16.838;2023-04-23T11:46:54;5.23;;;2.53;;
32365;SDS011;18837;46.832;16.838;2023-04-23T11:49:24;3.70;;;2.80;;
32365;SDS011;18837;46.832;16.838;2023-04-23T11:51:50;2.67;;;2.43;;
32365;SDS011;18837;46.832;16.838;2023-04-23T11:54:16;3.60;;;2.53;;
32365;SDS011;18837;46.832;16.838;2023-04-23T11:56:43;3.13;;;2.53;;
32365;SDS011;18837;46.832;16.838;2023-04-23T11:59:09;3.40;;;2.63;;
32365;SDS011;18837;46.832;16.838;2023-04-23T12:04:13;3.07;;;2.47;;
32365;SDS011;18837;46.832;16.838;2023-04-23T12:06:41;3.63;;;2.57;;
32365;SDS011;18837;46.832;16.838;2023-04-23T12:09:09;2.83;;;2.60;;
32365;SDS011;18837;46.832;16.838;2023-04-23T12:11:37;2.80;;;2.50;;
32365;SDS011;18837;46.832;16.838;2023-04-23T12:14:04;2.43;;;2.23;;
32365;SDS011;18837;46.832;16.838;2023-04-23T12:16:33;3.23;;;2.73;;
32365;SDS011;18837;46.832;16.838;2023-04-23T12:19:13;3.03;;;2.70;;
32365;SDS011;18837;46.832;16.838;2023-04-23T12:21:48;3.67;;;3.00;;
32365;SDS011;18837;46.832;16.838;2023-04-23T12:24:15;3.30;;;3.00;;
32365;SDS011;18837;46.832;16.838;2023-04-23T12:26:41;3.17;;;2.87;;
32365;SDS011;18837;46.832;16.838;2023-04-23T12:29:08;4.00;;;3.00;;
32365;SDS011;18837;46.832;16.838;2023-04-23T12:31:36;4.77;;;3.07;;
32365;SDS011;18837;46.832;16.838;2023-04-23T12:34:07;3.33;;;2.70;;
32365;SDS011;18837;46.832;16.838;2023-04-23T12:36:34;5.80;;;3.23;;
32365;SDS011;18837;46.832;16.838;2023-04-23T12:41:54;3.40;;;3.10;;
32365;SDS011;18837;46.832;16.838;2023-04-23T12:44:23;3.53;;;3.20;;
32365;SDS011;18837;46.832;16.838;2023-04-23T12:46:57;3.70;;;2.97;;
32365;SDS011;18837;46.832;16.838;2023-04-23T12:49:25;3.87;;;3.03;;
32365;SDS011;18837;46.832;16.838;2023-04-23T12:51:52;3.00;;;2.70;;
32365;SDS011;18837;46.832;16.838;2023-04-23T12:54:22;3.30;;;3.00;;
32365;SDS011;18837;46.832;16.838;2023-04-23T12:56:51;3.53;;;2.73;;
32365;SDS011;18837;46.832;16.838;2023-04-23T12:59:18;3.80;;;3.40;;
32365;SDS011;18837;46.832;16.838;2023-04-23T13:01:43;3.20;;;2.90;;
32365;SDS011;18837;46.832;16.838;2023-04-23T13:04:09;4.67;;;3.10;;
32365;SDS011;18837;46.832;16.838;2023-04-23T13:06:35;3.60;;;2.90;;
32365;SDS011;18837;46.832;16.838;2023-04-23T13:09:01;5.00;;;3.30;;
32365;SDS011;18837;46.832;16.838;2023-04-23T13:11:29;3.53;;;3.07;;
32365;SDS011;18837;46.832;16.838;2023-04-23T13:13:56;3.40;;;3.03;;
32365;SDS011;18837;46.832;16.838;2023-04-23T13:16:22;3.50;;;3.20;;
32365;SDS011;18837;46.832;16.838;2023-04-23T13:18:48;3.50;;;3.10;;
32365;SDS011;18837;46.832;16.838;2023-04-23T13:21:17;3.57;;;3.27;;
32365;SDS011;18837;46.832;16.838;2023-04-23T13:23:43;4.20;;;3.10;;
32365;SDS011;18837;46.832;16.838;2023-04-23T13:26:09;5.57;;;3.47;;
32365;SDS011;18837;46.832;16.838;2023-04-23T13:28:35;3.23;;;3.00;;
32365;SDS011;18837;46.832;16.838;2023-04-23T13:31:02;3.57;;;3.13;;
32365;SDS011;18837;46.832;16.838;2023-04-23T13:33:28;3.67;;;3.10;;
32365;SDS011;18837;46.832;16.838;2023-04-23T13:35:55;3.43;;;2.70;;
32365;SDS011;18837;46.832;16.838;2023-04-23T13:38:22;3.30;;;3.00;;
32365;SDS011;18837;46.832;16.838;2023-04-23T13:40:51;3.77;;;3.00;;
32365;SDS011;18837;46.832;16.838;2023-04-23T13:43:17;5.63;;;2.40;;
32365;SDS011;18837;46.832;16.838;2023-04-23T13:45:44;3.00;;;2.47;;
32365;SDS011;18837;46.832;16.838;2023-04-23T13:48:11;4.67;;;2.73;;
32365;SDS011;18837;46.832;16.838;2023-04-23T13:50:40;4.33;;;2.70;;
32365;SDS011;18837;46.832;16.838;2023-04-23T13:53:09;3.40;;;2.60;;
32365;SDS011;18837;46.832;16.838;2023-04-23T13:55:36;2.77;;;2.40;;
32365;SDS011;18837;46.832;16.838;2023-04-23T13:58:02;2.70;;;2.50;;
32365;SDS011;18837;46.832;16.838;2023-04-23T14:00:29;4.17;;;2.37;;
32365;SDS011;18837;46.832;16.838;2023-04-23T14:02:55;4.30;;;2.57;;
32365;SDS011;18837;46.832;16.838;2023-04-23T14:05:21;2.87;;;2.50;;
32365;SDS011;18837;46.832;16.838;2023-04-23T14:07:47;2.90;;;2.43;;
32365;SDS011;18837;46.832;16.838;2023-04-23T14:10:13;2.90;;;2.60;;
32365;SDS011;18837;46.832;16.838;2023-04-23T14:12:39;3.20;;;2.60;;
32365;SDS011;18837;46.832;16.838;2023-04-23T14:15:06;2.93;;;2.63;;
32365;SDS011;18837;46.832;16.838;2023-04-23T14:17:33;3.53;;;2.90;;
32365;SDS011;18837;46.832;16.838;2023-04-23T14:19:59;4.53;;;2.90;;
32365;SDS011;18837;46.832;16.838;2023-04-23T14:22:25;3.97;;;2.77;;
32365;SDS011;18837;46.832;16.838;2023-04-23T14:24:54;4.07;;;2.90;;
32365;SDS011;18837;46.832;16.838;2023-04-23T14:27:25;3.17;;;2.70;;
32365;SDS011;18837;46.832;16.838;2023-04-23T14:32:20;3.70;;;3.00;;
32365;SDS011;18837;46.832;16.838;2023-04-23T14:34:46;2.87;;;2.47;;
32365;SDS011;18837;46.832;16.838;2023-04-23T14:37:12;2.80;;;2.60;;
32365;SDS011;18837;46.832;16.838;2023-04-23T14:39:37;3.57;;;3.10;;
32365;SDS011;18837;46.832;16.838;2023-04-23T14:42:04;2.67;;;2.47;;
32365;SDS011;18837;46.832;16.838;2023-04-23T14:44:30;3.30;;;3.00;;
32365;SDS011;18837;46.832;16.838;2023-04-23T14:46:56;3.43;;;2.83;;